sensor_id;sensor_type;location;lat;lon;timestamp;temperature;humidity
44775;DHT22;31340;51.402;0.016;2022-09-12T00:01:06;18.30;99.90
44775;DHT22;31340;51.402;0.016;2022-09-12T00:03:34;18.30;99.90
44775;DHT22;31340;51.402;0.016;2022-09-12T00:06:17;18.30;99.90
44775;DHT22;31340;51.402;0.016;2022-09-12T00:08:52;18.20;99.90
44775;DHT22;31340;51.402;0.016;2022-09-12T00:11:20;18.20;99.90
44775;DHT22;31340;51.402;0.016;2022-09-12T00:13:48;18.20;99.90
44775;DHT22;31340;51.402;0.016;2022-09-12T00:16:22;18.20;99.90
44775;DHT22;31340;51.402;0.016;2022-09-12T00:18:50;18.20;99.90
44775;DHT22;31340;51.402;0.016;2022-09-12T00:21:20;18.20;99.90
44775;DHT22;31340;51.402;0.016;2022-09-12T00:23:48;18.20;99.90
44775;DHT22;31340;51.402;0.016;2022-09-12T00:26:16;18.20;99.90
44775;DHT22;31340;51.402;0.016;2022-09-12T00:28:44;18.20;99.90
44775;DHT22;31340;51.402;0.016;2022-09-12T00:31:15;18.20;99.90
44775;DHT22;31340;51.402;0.016;2022-09-12T00:33:43;18.20;99.90
44775;DHT22;31340;51.402;0.016;2022-09-12T00:36:14;18.20;99.90
44775;DHT22;31340;51.402;0.016;2022-09-12T00:38:42;18.20;99.90
44775;DHT22;31340;51.402;0.016;2022-09-12T00:41:22;18.20;99.90
44775;DHT22;31340;51.402;0.016;2022-09-12T00:43:55;18.10;99.90
44775;DHT22;31340;51.402;0.016;2022-09-12T00:46:46;18.10;99.90
44775;DHT22;31340;51.402;0.016;2022-09-12T00:49:20;18.10;99.90
44775;DHT22;31340;51.402;0.016;2022-09-12T00:51:53;18.10;99.90
44775;DHT22;31340;51.402;0.016;2022-09-12T00:54:25;18.10;99.90
44775;DHT22;31340;51.402;0.016;2022-09-12T00:56:58;18.20;99.90
44775;DHT22;31340;51.402;0.016;2022-09-12T00:59:31;18.20;99.90
44775;DHT22;31340;51.402;0.016;2022-09-12T01:02:01;18.20;99.90
44775;DHT22;31340;51.402;0.016;2022-09-12T01:04:30;18.20;99.90
44775;DHT22;31340;51.402;0.016;2022-09-12T01:06:57;18.20;99.90
44775;DHT22;31340;51.402;0.016;2022-09-12T01:09:25;18.20;99.90
44775;DHT22;31340;51.402;0.016;2022-09-12T01:11:53;18.20;99.90
44775;DHT22;31340;51.402;0.016;2022-09-12T01:14:21;18.20;99.90
44775;DHT22;31340;51.402;0.016;2022-09-12T01:16:49;18.20;99.90
44775;DHT22;31340;51.402;0.016;2022-09-12T01:31:00;18.20;99.90
44775;DHT22;31340;51.402;0.016;2022-09-12T01:33:52;18.20;99.90
44775;DHT22;31340;51.402;0.016;2022-09-12T01:36:46;18.30;99.90
44775;DHT22;31340;51.402;0.016;2022-09-12T01:39:34;18.20;99.90
44775;DHT22;31340;51.402;0.016;2022-09-12T01:47:49;18.30;99.90
44775;DHT22;31340;51.402;0.016;2022-09-12T01:50:24;18.20;99.90
44775;DHT22;31340;51.402;0.016;2022-09-12T01:52:55;18.20;99.90
44775;DHT22;31340;51.402;0.016;2022-09-12T01:55:40;18.20;99.90
44775;DHT22;31340;51.402;0.016;2022-09-12T01:58:09;18.20;99.90
44775;DHT22;31340;51.402;0.016;2022-09-12T02:00:45;18.30;99.90
44775;DHT22;31340;51.402;0.016;2022-09-12T02:03:18;18.30;99.90
44775;DHT22;31340;51.402;0.016;2022-09-12T02:05:55;18.30;99.90
44775;DHT22;31340;51.402;0.016;2022-09-12T02:08:39;18.40;99.90
44775;DHT22;31340;51.402;0.016;2022-09-12T02:11:10;18.40;99.90
44775;DHT22;31340;51.402;0.016;2022-09-12T02:13:43;18.40;99.90
44775;DHT22;31340;51.402;0.016;2022-09-12T02:16:20;18.50;99.90
44775;DHT22;31340;51.402;0.016;2022-09-12T02:18:52;18.40;99.90
44775;DHT22;31340;51.402;0.016;2022-09-12T02:21:21;18.50;99.90
44775;DHT22;31340;51.402;0.016;2022-09-12T02:23:56;18.50;99.90
44775;DHT22;31340;51.402;0.016;2022-09-12T02:26:30;18.50;99.90
44775;DHT22;31340;51.402;0.016;2022-09-12T02:28:59;18.60;99.90
44775;DHT22;31340;51.402;0.016;2022-09-12T02:36:56;18.60;99.90
44775;DHT22;31340;51.402;0.016;2022-09-12T02:39:26;18.60;99.90
44775;DHT22;31340;51.402;0.016;2022-09-12T02:41:56;18.60;99.90
44775;DHT22;31340;51.402;0.016;2022-09-12T02:44:26;18.70;99.90
44775;DHT22;31340;51.402;0.016;2022-09-12T02:47:00;18.70;99.90
44775;DHT22;31340;51.402;0.016;2022-09-12T02:49:30;18.70;99.90
44775;DHT22;31340;51.402;0.016;2022-09-12T02:51:58;18.80;99.90
44775;DHT22;31340;51.402;0.016;2022-09-12T02:54:27;18.80;99.90
44775;DHT22;31340;51.402;0.016;2022-09-12T02:56:55;18.80;99.90
44775;DHT22;31340;51.402;0.016;2022-09-12T02:59:23;18.80;99.90
44775;DHT22;31340;51.402;0.016;2022-09-12T03:02:21;18.80;99.90
44775;DHT22;31340;51.402;0.016;2022-09-12T03:19:24;18.70;99.90
44775;DHT22;31340;51.402;0.016;2022-09-12T03:22:13;18.70;99.90
44775;DHT22;31340;51.402;0.016;2022-09-12T03:25:01;18.70;99.90
44775;DHT22;31340;51.402;0.016;2022-09-12T03:27:35;18.60;99.90
44775;DHT22;31340;51.402;0.016;2022-09-12T03:30:04;18.60;99.90
44775;DHT22;31340;51.402;0.016;2022-09-12T03:32:46;18.60;99.90
44775;DHT22;31340;51.402;0.016;2022-09-12T03:35:16;18.60;99.90
44775;DHT22;31340;51.402;0.016;2022-09-12T03:37:50;18.60;99.90
44775;DHT22;31340;51.402;0.016;2022-09-12T03:40:18;18.60;99.90
44775;DHT22;31340;51.402;0.016;2022-09-12T03:42:46;18.70;99.90
44775;DHT22;31340;51.402;0.016;2022-09-12T03:45:13;18.70;99.90
44775;DHT22;31340;51.402;0.016;2022-09-12T03:47:42;18.60;99.90
44775;DHT22;31340;51.402;0.016;2022-09-12T03:50:10;18.60;99.90
44775;DHT22;31340;51.402;0.016;2022-09-12T03:52:38;18.60;99.90
44775;DHT22;31340;51.402;0.016;2022-09-12T03:55:06;18.60;99.90
44775;DHT22;31340;51.402;0.016;2022-09-12T03:57:33;18.60;99.90
44775;DHT22;31340;51.402;0.016;2022-09-12T04:00:01;18.60;99.90
44775;DHT22;31340;51.402;0.016;2022-09-12T04:02:38;18.60;99.90
44775;DHT22;31340;51.402;0.016;2022-09-12T04:05:06;18.60;99.90
44775;DHT22;31340;51.402;0.016;2022-09-12T04:07:34;18.60;99.90
44775;DHT22;31340;51.402;0.016;2022-09-12T04:10:01;18.60;99.90
44775;DHT22;31340;51.402;0.016;2022-09-12T04:12:30;18.60;99.90
44775;DHT22;31340;51.402;0.016;2022-09-12T04:14:57;18.50;99.90
44775;DHT22;31340;51.402;0.016;2022-09-12T04:17:25;18.50;99.90
44775;DHT22;31340;51.402;0.016;2022-09-12T04:19:52;18.60;99.90
44775;DHT22;31340;51.402;0.016;2022-09-12T04:22:20;18.60;99.90
44775;DHT22;31340;51.402;0.016;2022-09-12T04:24:47;18.50;99.90
44775;DHT22;31340;51.402;0.016;2022-09-12T04:27:15;18.50;99.90
44775;DHT22;31340;51.402;0.016;2022-09-12T04:29:43;18.50;99.90
44775;DHT22;31340;51.402;0.016;2022-09-12T04:32:10;18.50;99.90
44775;DHT22;31340;51.402;0.016;2022-09-12T04:34:38;18.50;99.90
44775;DHT22;31340;51.402;0.016;2022-09-12T04:37:05;18.50;99.90
44775;DHT22;31340;51.402;0.016;2022-09-12T04:39:33;18.40;99.90
44775;DHT22;31340;51.402;0.016;2022-09-12T04:42:00;18.40;99.90
44775;DHT22;31340;51.402;0.016;2022-09-12T04:44:30;18.40;99.90
44775;DHT22;31340;51.402;0.016;2022-09-12T04:46:57;18.40;99.90
44775;DHT22;31340;51.402;0.016;2022-09-12T04:49:25;18.50;99.90
44775;DHT22;31340;51.402;0.016;2022-09-12T04:51:53;18.40;99.90
44775;DHT22;31340;51.402;0.016;2022-09-12T04:54:21;18.40;99.90
44775;DHT22;31340;51.402;0.016;2022-09-12T04:56:49;18.40;99.90
44775;DHT22;31340;51.402;0.016;2022-09-12T04:59:19;18.30;99.90
44775;DHT22;31340;51.402;0.016;2022-09-12T05:01:46;18.40;99.90
44775;DHT22;31340;51.402;0.016;2022-09-12T05:04:15;18.70;99.90
44775;DHT22;31340;51.402;0.016;2022-09-12T05:06:42;18.30;99.90
44775;DHT22;31340;51.402;0.016;2022-09-12T05:09:11;18.30;99.90
44775;DHT22;31340;51.402;0.016;2022-09-12T05:11:42;18.30;99.90
44775;DHT22;31340;51.402;0.016;2022-09-12T05:14:29;18.30;99.90
44775;DHT22;31340;51.402;0.016;2022-09-12T05:16:59;18.20;99.90
44775;DHT22;31340;51.402;0.016;2022-09-12T05:19:28;18.30;99.90
44775;DHT22;31340;51.402;0.016;2022-09-12T05:21:57;18.30;99.90
44775;DHT22;31340;51.402;0.016;2022-09-12T05:24:25;18.30;99.90
44775;DHT22;31340;51.402;0.016;2022-09-12T05:26:52;18.20;99.90
44775;DHT22;31340;51.402;0.016;2022-09-12T05:29:20;18.20;99.90
44775;DHT22;31340;51.402;0.016;2022-09-12T05:31:47;18.20;99.90
44775;DHT22;31340;51.402;0.016;2022-09-12T05:34:19;18.20;99.90
44775;DHT22;31340;51.402;0.016;2022-09-12T05:36:47;18.20;99.90
44775;DHT22;31340;51.402;0.016;2022-09-12T05:39:15;18.20;99.90
44775;DHT22;31340;51.402;0.016;2022-09-12T05:41:43;18.20;99.90
44775;DHT22;31340;51.402;0.016;2022-09-12T05:44:11;18.20;99.90
44775;DHT22;31340;51.402;0.016;2022-09-12T05:46:42;18.20;99.90
44775;DHT22;31340;51.402;0.016;2022-09-12T05:49:12;18.30;99.90
44775;DHT22;31340;51.402;0.016;2022-09-12T05:51:42;18.20;99.90
44775;DHT22;31340;51.402;0.016;2022-09-12T05:54:13;18.30;99.90
44775;DHT22;31340;51.402;0.016;2022-09-12T05:56:42;18.30;99.90
44775;DHT22;31340;51.402;0.016;2022-09-12T05:59:16;18.30;99.90
44775;DHT22;31340;51.402;0.016;2022-09-12T06:01:44;18.30;99.90
44775;DHT22;31340;51.402;0.016;2022-09-12T06:04:12;18.40;99.90
44775;DHT22;31340;51.402;0.016;2022-09-12T06:06:42;18.30;99.90
44775;DHT22;31340;51.402;0.016;2022-09-12T06:09:13;18.40;99.90
44775;DHT22;31340;51.402;0.016;2022-09-12T06:11:41;18.40;99.90
44775;DHT22;31340;51.402;0.016;2022-09-12T06:14:11;18.40;99.90
44775;DHT22;31340;51.402;0.016;2022-09-12T06:16:39;18.40;99.90
44775;DHT22;31340;51.402;0.016;2022-09-12T06:19:13;18.50;99.90
44775;DHT22;31340;51.402;0.016;2022-09-12T06:21:41;18.50;99.90
44775;DHT22;31340;51.402;0.016;2022-09-12T06:24:09;18.50;99.90
44775;DHT22;31340;51.402;0.016;2022-09-12T06:26:36;18.60;99.90
44775;DHT22;31340;51.402;0.016;2022-09-12T06:29:04;18.60;99.90
44775;DHT22;31340;51.402;0.016;2022-09-12T06:31:36;18.60;99.90
44775;DHT22;31340;51.402;0.016;2022-09-12T06:34:07;18.70;99.90
44775;DHT22;31340;51.402;0.016;2022-09-12T06:36:38;18.70;99.90
44775;DHT22;31340;51.402;0.016;2022-09-12T06:39:09;18.80;99.90
44775;DHT22;31340;51.402;0.016;2022-09-12T06:41:37;18.80;99.90
44775;DHT22;31340;51.402;0.016;2022-09-12T06:44:16;18.90;99.90
44775;DHT22;31340;51.402;0.016;2022-09-12T06:46:44;18.90;99.90
44775;DHT22;31340;51.402;0.016;2022-09-12T06:49:12;19.00;99.90
44775;DHT22;31340;51.402;0.016;2022-09-12T06:51:40;19.10;99.90
44775;DHT22;31340;51.402;0.016;2022-09-12T06:54:12;19.10;99.90
44775;DHT22;31340;51.402;0.016;2022-09-12T06:56:40;19.20;99.90
44775;DHT22;31340;51.402;0.016;2022-09-12T06:59:07;19.30;99.90
44775;DHT22;31340;51.402;0.016;2022-09-12T07:01:35;19.30;99.90
44775;DHT22;31340;51.402;0.016;2022-09-12T07:04:03;19.40;99.90
44775;DHT22;31340;51.402;0.016;2022-09-12T07:06:36;19.50;99.90
44775;DHT22;31340;51.402;0.016;2022-09-12T07:09:06;19.60;99.90
44775;DHT22;31340;51.402;0.016;2022-09-12T07:11:35;19.60;99.90
44775;DHT22;31340;51.402;0.016;2022-09-12T07:14:06;19.70;99.90
44775;DHT22;31340;51.402;0.016;2022-09-12T07:16:34;19.80;99.90
44775;DHT22;31340;51.402;0.016;2022-09-12T07:19:05;19.90;99.90
44775;DHT22;31340;51.402;0.016;2022-09-12T07:21:33;19.90;99.90
44775;DHT22;31340;51.402;0.016;2022-09-12T07:24:07;20.00;99.90
44775;DHT22;31340;51.402;0.016;2022-09-12T07:26:36;20.10;99.90
44775;DHT22;31340;51.402;0.016;2022-09-12T07:29:04;20.10;99.90
44775;DHT22;31340;51.402;0.016;2022-09-12T07:31:52;20.20;99.90
44775;DHT22;31340;51.402;0.016;2022-09-12T07:34:20;20.20;99.90
44775;DHT22;31340;51.402;0.016;2022-09-12T07:36:47;20.30;99.90
44775;DHT22;31340;51.402;0.016;2022-09-12T07:39:15;20.40;99.90
44775;DHT22;31340;51.402;0.016;2022-09-12T07:41:42;20.40;99.90
44775;DHT22;31340;51.402;0.016;2022-09-12T07:44:10;20.40;99.90
44775;DHT22;31340;51.402;0.016;2022-09-12T07:46:37;20.50;99.90
44775;DHT22;31340;51.402;0.016;2022-09-12T07:49:06;20.50;99.90
44775;DHT22;31340;51.402;0.016;2022-09-12T07:51:34;20.60;99.90
44775;DHT22;31340;51.402;0.016;2022-09-12T07:54:07;20.60;99.90
44775;DHT22;31340;51.402;0.016;2022-09-12T07:56:35;20.70;99.90
44775;DHT22;31340;51.402;0.016;2022-09-12T07:59:06;20.70;99.90
44775;DHT22;31340;51.402;0.016;2022-09-12T08:01:34;20.80;99.90
44775;DHT22;31340;51.402;0.016;2022-09-12T08:04:02;20.90;99.90
44775;DHT22;31340;51.402;0.016;2022-09-12T08:06:32;21.00;99.90
44775;DHT22;31340;51.402;0.016;2022-09-12T08:09:03;21.10;99.90
44775;DHT22;31340;51.402;0.016;2022-09-12T08:11:31;21.20;99.90
44775;DHT22;31340;51.402;0.016;2022-09-12T08:13:59;21.20;99.90
44775;DHT22;31340;51.402;0.016;2022-09-12T08:16:30;21.30;99.90
44775;DHT22;31340;51.402;0.016;2022-09-12T08:18:59;21.40;99.90
44775;DHT22;31340;51.402;0.016;2022-09-12T08:21:29;21.50;99.80
44775;DHT22;31340;51.402;0.016;2022-09-12T08:24:00;21.50;99.60
44775;DHT22;31340;51.402;0.016;2022-09-12T08:26:29;21.60;99.50
44775;DHT22;31340;51.402;0.016;2022-09-12T08:28:57;21.70;99.30
44775;DHT22;31340;51.402;0.016;2022-09-12T08:31:25;21.80;99.00
44775;DHT22;31340;51.402;0.016;2022-09-12T08:33:57;21.90;98.90
44775;DHT22;31340;51.402;0.016;2022-09-12T08:36:26;21.90;98.60
44775;DHT22;31340;51.402;0.016;2022-09-12T08:38:56;22.00;98.10
44775;DHT22;31340;51.402;0.016;2022-09-12T08:41:40;22.10;98.00
44775;DHT22;31340;51.402;0.016;2022-09-12T08:50:24;22.30;97.60
44775;DHT22;31340;51.402;0.016;2022-09-12T08:52:51;22.30;97.60
44775;DHT22;31340;51.402;0.016;2022-09-12T08:55:30;22.40;97.20
44775;DHT22;31340;51.402;0.016;2022-09-12T08:58:01;22.50;96.90
44775;DHT22;31340;51.402;0.016;2022-09-12T09:03:41;22.70;96.50
44775;DHT22;31340;51.402;0.016;2022-09-12T09:22:55;23.20;95.00
44775;DHT22;31340;51.402;0.016;2022-09-12T09:25:27;23.20;95.00
44775;DHT22;31340;51.402;0.016;2022-09-12T09:28:12;23.30;94.70
44775;DHT22;31340;51.402;0.016;2022-09-12T09:30:42;23.40;94.40
44775;DHT22;31340;51.402;0.016;2022-09-12T09:33:22;23.50;94.20
44775;DHT22;31340;51.402;0.016;2022-09-12T09:36:15;23.60;93.80
44775;DHT22;31340;51.402;0.016;2022-09-12T09:38:49;23.70;93.30
44775;DHT22;31340;51.402;0.016;2022-09-12T09:41:32;23.80;93.10
44775;DHT22;31340;51.402;0.016;2022-09-12T09:44:01;23.90;92.80
44775;DHT22;31340;51.402;0.016;2022-09-12T09:46:29;23.90;92.60
44775;DHT22;31340;51.402;0.016;2022-09-12T09:48:57;24.10;92.40
44775;DHT22;31340;51.402;0.016;2022-09-12T09:51:34;24.10;92.10
44775;DHT22;31340;51.402;0.016;2022-09-12T09:54:23;24.20;91.60
44775;DHT22;31340;51.402;0.016;2022-09-12T09:56:52;24.20;91.50
44775;DHT22;31340;51.402;0.016;2022-09-12T09:59:31;24.30;91.40
44775;DHT22;31340;51.402;0.016;2022-09-12T10:02:18;24.40;91.10
44775;DHT22;31340;51.402;0.016;2022-09-12T10:04:55;24.40;90.90
44775;DHT22;31340;51.402;0.016;2022-09-12T10:07:25;24.40;90.70
44775;DHT22;31340;51.402;0.016;2022-09-12T10:10:25;24.50;90.80
44775;DHT22;31340;51.402;0.016;2022-09-12T10:13:22;24.60;90.60
44775;DHT22;31340;51.402;0.016;2022-09-12T10:15:59;24.60;90.50
44775;DHT22;31340;51.402;0.016;2022-09-12T10:18:39;24.60;90.20
44775;DHT22;31340;51.402;0.016;2022-09-12T10:21:24;24.60;90.00
44775;DHT22;31340;51.402;0.016;2022-09-12T10:24:04;24.70;90.30
44775;DHT22;31340;51.402;0.016;2022-09-12T10:26:35;24.70;90.10
44775;DHT22;31340;51.402;0.016;2022-09-12T10:29:16;24.80;89.90
44775;DHT22;31340;51.402;0.016;2022-09-12T10:31:51;24.90;89.60
44775;DHT22;31340;51.402;0.016;2022-09-12T10:36:54;25.00;88.40
44775;DHT22;31340;51.402;0.016;2022-09-12T10:39:25;25.10;87.70
44775;DHT22;31340;51.402;0.016;2022-09-12T10:41:53;25.20;87.40
44775;DHT22;31340;51.402;0.016;2022-09-12T10:44:28;25.30;87.70
44775;DHT22;31340;51.402;0.016;2022-09-12T10:46:58;25.30;87.70
44775;DHT22;31340;51.402;0.016;2022-09-12T10:49:29;25.50;87.40
44775;DHT22;31340;51.402;0.016;2022-09-12T10:52:21;25.50;86.90
44775;DHT22;31340;51.402;0.016;2022-09-12T10:54:50;25.60;86.90
44775;DHT22;31340;51.402;0.016;2022-09-12T11:00:02;25.90;86.30
44775;DHT22;31340;51.402;0.016;2022-09-12T11:02:54;26.00;85.80
44775;DHT22;31340;51.402;0.016;2022-09-12T11:25:53;27.20;76.30
44775;DHT22;31340;51.402;0.016;2022-09-12T11:28:29;27.20;75.50
44775;DHT22;31340;51.402;0.016;2022-09-12T11:31:29;27.20;75.30
44775;DHT22;31340;51.402;0.016;2022-09-12T11:34:04;27.30;74.20
44775;DHT22;31340;51.402;0.016;2022-09-12T11:39:25;27.30;75.00
44775;DHT22;31340;51.402;0.016;2022-09-12T11:41:58;27.40;74.90
44775;DHT22;31340;51.402;0.016;2022-09-12T11:44:41;27.40;75.10
44775;DHT22;31340;51.402;0.016;2022-09-12T11:47:12;27.50;74.90
44775;DHT22;31340;51.402;0.016;2022-09-12T11:49:45;27.60;74.30
44775;DHT22;31340;51.402;0.016;2022-09-12T11:52:17;27.80;74.30
44775;DHT22;31340;51.402;0.016;2022-09-12T11:59:51;28.30;72.30
44775;DHT22;31340;51.402;0.016;2022-09-12T12:05:23;28.60;70.50
44775;DHT22;31340;51.402;0.016;2022-09-12T12:07:57;28.70;70.40
44775;DHT22;31340;51.402;0.016;2022-09-12T12:10:35;28.80;69.80
44775;DHT22;31340;51.402;0.016;2022-09-12T12:13:32;28.80;69.40
44775;DHT22;31340;51.402;0.016;2022-09-12T12:16:10;28.90;69.30
44775;DHT22;31340;51.402;0.016;2022-09-12T12:18:39;28.80;68.90
44775;DHT22;31340;51.402;0.016;2022-09-12T12:21:46;28.80;69.50
44775;DHT22;31340;51.402;0.016;2022-09-12T12:24:21;28.80;69.50
44775;DHT22;31340;51.402;0.016;2022-09-12T12:46:12;29.90;61.70
44775;DHT22;31340;51.402;0.016;2022-09-12T12:51:47;30.30;59.60
44775;DHT22;31340;51.402;0.016;2022-09-12T13:05:25;31.70;56.50
44775;DHT22;31340;51.402;0.016;2022-09-12T13:08:00;31.90;55.90
44775;DHT22;31340;51.402;0.016;2022-09-12T13:10:29;32.20;55.30
44775;DHT22;31340;51.402;0.016;2022-09-12T13:13:00;32.50;54.30
44775;DHT22;31340;51.402;0.016;2022-09-12T13:15:46;32.60;53.60
44775;DHT22;31340;51.402;0.016;2022-09-12T13:18:26;32.80;53.10
44775;DHT22;31340;51.402;0.016;2022-09-12T13:21:07;33.00;52.80
44775;DHT22;31340;51.402;0.016;2022-09-12T13:23:38;33.10;52.30
44775;DHT22;31340;51.402;0.016;2022-09-12T13:26:19;33.20;52.40
44775;DHT22;31340;51.402;0.016;2022-09-12T13:28:48;33.30;51.80
44775;DHT22;31340;51.402;0.016;2022-09-12T13:31:26;33.50;50.70
44775;DHT22;31340;51.402;0.016;2022-09-12T13:33:58;33.50;49.30
44775;DHT22;31340;51.402;0.016;2022-09-12T13:39:26;33.70;48.90
44775;DHT22;31340;51.402;0.016;2022-09-12T13:44:53;33.80;47.90
44775;DHT22;31340;51.402;0.016;2022-09-12T13:47:29;33.90;48.40
44775;DHT22;31340;51.402;0.016;2022-09-12T13:49:57;34.00;48.80
44775;DHT22;31340;51.402;0.016;2022-09-12T13:52:29;34.20;48.50
44775;DHT22;31340;51.402;0.016;2022-09-12T13:54:59;34.20;47.90
44775;DHT22;31340;51.402;0.016;2022-09-12T13:57:35;34.30;47.20
44775;DHT22;31340;51.402;0.016;2022-09-12T14:00:16;34.40;47.20
44775;DHT22;31340;51.402;0.016;2022-09-12T14:02:47;34.40;46.90
44775;DHT22;31340;51.402;0.016;2022-09-12T14:05:24;34.50;47.20
44775;DHT22;31340;51.402;0.016;2022-09-12T14:07:56;34.50;46.90
44775;DHT22;31340;51.402;0.016;2022-09-12T14:10:36;34.50;45.80
44775;DHT22;31340;51.402;0.016;2022-09-12T14:13:20;34.50;45.90
44775;DHT22;31340;51.402;0.016;2022-09-12T14:15:50;34.40;45.90
44775;DHT22;31340;51.402;0.016;2022-09-12T14:18:28;34.30;46.20
44775;DHT22;31340;51.402;0.016;2022-09-12T14:21:00;34.20;46.60
44775;DHT22;31340;51.402;0.016;2022-09-12T14:23:32;34.10;46.40
44775;DHT22;31340;51.402;0.016;2022-09-12T14:26:02;33.90;46.60
44775;DHT22;31340;51.402;0.016;2022-09-12T14:28:35;33.70;46.90
44775;DHT22;31340;51.402;0.016;2022-09-12T14:31:06;33.50;47.20
44775;DHT22;31340;51.402;0.016;2022-09-12T14:38:51;32.90;48.10
44775;DHT22;31340;51.402;0.016;2022-09-12T14:41:28;32.80;47.90
44775;DHT22;31340;51.402;0.016;2022-09-12T14:43:59;32.70;48.20
44775;DHT22;31340;51.402;0.016;2022-09-12T14:46:32;32.60;47.90
44775;DHT22;31340;51.402;0.016;2022-09-12T14:52:02;32.30;48.10
44775;DHT22;31340;51.402;0.016;2022-09-12T14:57:03;32.20;48.50
44775;DHT22;31340;51.402;0.016;2022-09-12T15:04:50;32.20;48.40
44775;DHT22;31340;51.402;0.016;2022-09-12T15:07:40;32.30;48.20
44775;DHT22;31340;51.402;0.016;2022-09-12T15:13:11;32.20;48.00
44775;DHT22;31340;51.402;0.016;2022-09-12T15:15:46;32.00;48.00
44775;DHT22;31340;51.402;0.016;2022-09-12T15:18:15;31.90;48.00
44775;DHT22;31340;51.402;0.016;2022-09-12T15:20:46;31.80;48.10
44775;DHT22;31340;51.402;0.016;2022-09-12T15:23:29;31.60;48.00
44775;DHT22;31340;51.402;0.016;2022-09-12T15:25:58;31.40;48.40
44775;DHT22;31340;51.402;0.016;2022-09-12T15:28:28;31.30;48.80
44775;DHT22;31340;51.402;0.016;2022-09-12T15:31:02;31.20;49.00
44775;DHT22;31340;51.402;0.016;2022-09-12T15:33:31;31.00;49.30
44775;DHT22;31340;51.402;0.016;2022-09-12T15:35:58;30.90;49.80
44775;DHT22;31340;51.402;0.016;2022-09-12T15:38:26;30.70;50.10
44775;DHT22;31340;51.402;0.016;2022-09-12T15:40:54;30.50;50.40
44775;DHT22;31340;51.402;0.016;2022-09-12T15:43:22;30.40;50.80
44775;DHT22;31340;51.402;0.016;2022-09-12T15:45:52;30.20;51.30
44775;DHT22;31340;51.402;0.016;2022-09-12T15:48:20;30.10;51.50
44775;DHT22;31340;51.402;0.016;2022-09-12T15:50:48;29.90;51.80
44775;DHT22;31340;51.402;0.016;2022-09-12T15:53:16;29.80;52.40
44775;DHT22;31340;51.402;0.016;2022-09-12T15:55:44;29.60;52.60
44775;DHT22;31340;51.402;0.016;2022-09-12T15:58:12;29.50;53.10
44775;DHT22;31340;51.402;0.016;2022-09-12T16:00:39;29.40;53.10
44775;DHT22;31340;51.402;0.016;2022-09-12T16:03:23;29.20;53.50
44775;DHT22;31340;51.402;0.016;2022-09-12T16:06:01;29.10;53.90
44775;DHT22;31340;51.402;0.016;2022-09-12T16:08:30;28.90;54.40
44775;DHT22;31340;51.402;0.016;2022-09-12T16:11:01;28.80;54.70
44775;DHT22;31340;51.402;0.016;2022-09-12T16:13:30;28.70;55.30
44775;DHT22;31340;51.402;0.016;2022-09-12T16:15:58;28.60;55.70
44775;DHT22;31340;51.402;0.016;2022-09-12T16:18:27;28.50;56.20
44775;DHT22;31340;51.402;0.016;2022-09-12T16:20:55;28.50;56.60
44775;DHT22;31340;51.402;0.016;2022-09-12T16:23:23;28.40;56.60
44775;DHT22;31340;51.402;0.016;2022-09-12T16:26:03;28.30;56.70
44775;DHT22;31340;51.402;0.016;2022-09-12T16:28:31;28.30;57.00
44775;DHT22;31340;51.402;0.016;2022-09-12T16:31:02;28.20;57.30
44775;DHT22;31340;51.402;0.016;2022-09-12T16:33:31;28.10;58.00
44775;DHT22;31340;51.402;0.016;2022-09-12T16:38:32;28.00;57.50
44775;DHT22;31340;51.402;0.016;2022-09-12T16:41:02;27.90;57.70
44775;DHT22;31340;51.402;0.016;2022-09-12T16:43:31;27.90;57.80
44775;DHT22;31340;51.402;0.016;2022-09-12T16:46:17;27.90;58.30
44775;DHT22;31340;51.402;0.016;2022-09-12T16:48:53;27.90;57.80
44775;DHT22;31340;51.402;0.016;2022-09-12T16:51:24;27.80;57.70
44775;DHT22;31340;51.402;0.016;2022-09-12T16:53:54;27.80;58.50
44775;DHT22;31340;51.402;0.016;2022-09-12T16:56:22;27.70;57.80
44775;DHT22;31340;51.402;0.016;2022-09-12T16:58:50;27.70;57.90
44775;DHT22;31340;51.402;0.016;2022-09-12T17:01:23;27.60;57.80
44775;DHT22;31340;51.402;0.016;2022-09-12T17:03:56;27.60;57.90
44775;DHT22;31340;51.402;0.016;2022-09-12T17:06:24;27.50;58.20
44775;DHT22;31340;51.402;0.016;2022-09-12T17:08:57;27.40;58.30
44775;DHT22;31340;51.402;0.016;2022-09-12T17:11:30;27.40;58.50
44775;DHT22;31340;51.402;0.016;2022-09-12T17:13:59;27.30;58.50
44775;DHT22;31340;51.402;0.016;2022-09-12T17:16:34;27.20;58.60
44775;DHT22;31340;51.402;0.016;2022-09-12T17:19:03;27.20;58.90
44775;DHT22;31340;51.402;0.016;2022-09-12T17:21:32;27.10;58.90
44775;DHT22;31340;51.402;0.016;2022-09-12T17:24:00;27.10;59.10
44775;DHT22;31340;51.402;0.016;2022-09-12T17:26:28;27.00;59.40
44775;DHT22;31340;51.402;0.016;2022-09-12T17:28:55;26.90;59.60
44775;DHT22;31340;51.402;0.016;2022-09-12T17:31:23;26.80;59.80
44775;DHT22;31340;51.402;0.016;2022-09-12T17:33:55;26.80;60.10
44775;DHT22;31340;51.402;0.016;2022-09-12T17:36:23;26.70;60.40
44775;DHT22;31340;51.402;0.016;2022-09-12T17:38:51;26.60;60.80
44775;DHT22;31340;51.402;0.016;2022-09-12T17:41:23;26.60;61.10
44775;DHT22;31340;51.402;0.016;2022-09-12T17:43:55;26.50;61.60
44775;DHT22;31340;51.402;0.016;2022-09-12T17:46:26;26.40;61.40
44775;DHT22;31340;51.402;0.016;2022-09-12T17:48:57;26.30;62.30
44775;DHT22;31340;51.402;0.016;2022-09-12T17:51:26;26.20;62.90
44775;DHT22;31340;51.402;0.016;2022-09-12T17:54:02;26.10;63.40
44775;DHT22;31340;51.402;0.016;2022-09-12T17:56:32;26.00;64.00
44775;DHT22;31340;51.402;0.016;2022-09-12T17:59:00;26.00;64.60
44775;DHT22;31340;51.402;0.016;2022-09-12T18:01:29;25.90;64.80
44775;DHT22;31340;51.402;0.016;2022-09-12T18:04:16;25.80;65.30
44775;DHT22;31340;51.402;0.016;2022-09-12T18:06:44;25.70;65.60
44775;DHT22;31340;51.402;0.016;2022-09-12T18:09:21;25.60;65.90
44775;DHT22;31340;51.402;0.016;2022-09-12T18:11:50;25.60;66.40
44775;DHT22;31340;51.402;0.016;2022-09-12T18:14:18;25.50;66.80
44775;DHT22;31340;51.402;0.016;2022-09-12T18:16:46;25.50;67.00
44775;DHT22;31340;51.402;0.016;2022-09-12T18:19:14;25.40;67.50
44775;DHT22;31340;51.402;0.016;2022-09-12T18:21:42;25.40;68.30
44775;DHT22;31340;51.402;0.016;2022-09-12T18:24:10;25.30;68.60
44775;DHT22;31340;51.402;0.016;2022-09-12T18:26:38;25.30;69.10
44775;DHT22;31340;51.402;0.016;2022-09-12T18:29:06;25.20;69.40
44775;DHT22;31340;51.402;0.016;2022-09-12T18:31:34;25.20;70.10
44775;DHT22;31340;51.402;0.016;2022-09-12T18:34:02;25.10;70.40
44775;DHT22;31340;51.402;0.016;2022-09-12T18:36:30;25.10;70.60
44775;DHT22;31340;51.402;0.016;2022-09-12T18:38:58;25.10;71.70
44775;DHT22;31340;51.402;0.016;2022-09-12T18:41:26;25.00;71.00